createdAt,value
2022-10-29T00:00:17.608Z,98.38
2022-10-29T00:01:17.632Z,98.28
2022-10-29T00:02:17.581Z,98.28
2022-10-29T00:03:17.573Z,98.28
2022-10-29T00:04:17.678Z,98.18
2022-10-29T00:05:17.695Z,98.28
2022-10-29T00:06:17.679Z,98.28
2022-10-29T00:07:17.511Z,98.28
2022-10-29T00:08:17.811Z,98.28
2022-10-29T00:09:17.585Z,98.28
2022-10-29T00:10:17.500Z,98.28
2022-10-29T00:11:17.599Z,98.28
2022-10-29T00:12:17.494Z,98.28
2022-10-29T00:13:17.516Z,98.28
2022-10-29T00:14:17.449Z,98.28
2022-10-29T00:15:17.447Z,98.28
2022-10-29T00:16:17.505Z,98.28
2022-10-29T00:17:17.397Z,98.28
2022-10-29T00:18:17.563Z,98.28
2022-10-29T00:19:17.667Z,98.28
2022-10-29T00:20:17.679Z,98.28
2022-10-29T00:21:17.366Z,98.28
2022-10-29T00:22:17.396Z,98.28
2022-10-29T00:23:17.328Z,98.28
2022-10-29T00:24:17.331Z,98.28
2022-10-29T00:25:17.319Z,98.28
2022-10-29T00:26:17.318Z,98.28
2022-10-29T00:27:17.277Z,98.38
2022-10-29T00:28:17.308Z,98.49
2022-10-29T00:29:17.267Z,98.49
2022-10-29T00:30:17.947Z,98.49
2022-10-29T00:31:18.090Z,98.49
2022-10-29T00:32:17.291Z,98.49
2022-10-29T00:33:17.215Z,98.49
2022-10-29T00:34:17.218Z,98.49
2022-10-29T00:35:17.211Z,98.49
2022-10-29T00:36:17.368Z,98.49
2022-10-29T00:37:17.277Z,98.38
2022-10-29T00:38:17.523Z,98.38
2022-10-29T00:39:17.490Z,98.38
2022-10-29T00:40:17.598Z,98.28
2022-10-29T00:41:17.120Z,98.28
2022-10-29T00:42:17.449Z,98.28
2022-10-29T00:43:17.209Z,98.28
2022-10-29T00:44:17.127Z,98.18
2022-10-29T00:45:17.090Z,98.07
2022-10-29T00:46:17.092Z,98.03
2022-10-29T00:47:17.049Z,97.92
2022-10-29T00:48:17.057Z,97.92
2022-10-29T00:49:17.054Z,97.92
2022-10-29T00:50:17.037Z,97.92
2022-10-29T00:51:16.998Z,97.92
2022-10-29T00:52:17.020Z,97.92
2022-10-29T00:55:46.059Z,97.92
2022-10-29T00:57:40.501Z,97.92
2022-10-29T00:58:40.500Z,97.92
2022-10-29T00:59:40.536Z,97.92
2022-10-29T01:00:40.471Z,97.72
2022-10-29T01:01:40.507Z,97.62
2022-10-29T01:02:40.552Z,97.52
2022-10-29T01:03:40.708Z,97.47
2022-10-29T01:04:40.430Z,97.41
2022-10-29T01:05:40.410Z,97.31
2022-10-29T01:06:40.412Z,97.27
2022-10-29T01:07:40.389Z,97.21
2022-10-29T01:08:40.410Z,97.21
2022-10-29T01:09:40.360Z,97.21
2022-10-29T01:10:40.371Z,97.11
2022-10-29T01:11:40.340Z,97.11
2022-10-29T01:12:40.341Z,97.11
2022-10-29T01:13:40.570Z,97.11
2022-10-29T01:14:40.319Z,97.11
2022-10-29T01:15:40.369Z,97.11
2022-10-29T01:16:40.310Z,97.11
2022-10-29T01:17:40.280Z,97.11
2022-10-29T01:18:40.350Z,97.11
2022-10-29T01:19:40.253Z,97.21
2022-10-29T01:20:40.252Z,97.31
2022-10-29T01:21:40.229Z,97.41
2022-10-29T01:22:40.232Z,97.41
2022-10-29T01:23:40.644Z,97.31
2022-10-29T01:24:40.208Z,97.41
2022-10-29T01:25:40.183Z,97.31
2022-10-29T01:26:40.182Z,97.31
2022-10-29T01:27:40.989Z,97.31
2022-10-29T01:28:40.897Z,97.31
2022-10-29T01:29:40.139Z,97.31
2022-10-29T01:30:40.140Z,97.46
2022-10-29T01:31:40.110Z,97.46
2022-10-29T01:32:40.118Z,97.46
2022-10-29T01:33:40.089Z,97.46
2022-10-29T01:34:40.110Z,97.46
2022-10-29T01:35:40.079Z,97.56
2022-10-29T01:36:40.069Z,97.56
2022-10-29T01:37:40.045Z,97.56
2022-10-29T01:38:40.039Z,97.56
2022-10-29T01:39:40.026Z,97.66
2022-10-29T01:40:40.034Z,97.66
2022-10-29T01:41:40.248Z,97.66
2022-10-29T01:42:40.005Z,97.66
2022-10-29T01:43:39.969Z,97.66
2022-10-29T01:44:39.970Z,97.71
2022-10-29T01:45:40.031Z,97.81
2022-10-29T01:46:39.951Z,97.81
2022-10-29T01:47:48.823Z,97.91
2022-10-29T01:48:40.203Z,97.91
2022-10-29T01:49:40.101Z,98.02
2022-10-29T01:50:42.692Z,98.02
2022-10-29T01:51:39.896Z,98.07
2022-10-29T01:52:39.904Z,98.18
2022-10-29T01:53:39.905Z,98.18
2022-10-29T01:54:39.873Z,98.28
2022-10-29T01:55:39.855Z,98.38
2022-10-29T01:56:39.855Z,98.38
2022-10-29T01:57:39.836Z,98.38
2022-10-29T01:58:39.828Z,98.38
2022-10-29T01:59:55.003Z,98.38
2022-10-29T02:00:40.854Z,98.38
2022-10-29T02:01:39.794Z,98.28
2022-10-29T02:02:43.247Z,98.28
2022-10-29T02:03:40.765Z,98.28
2022-10-29T02:04:39.815Z,98.18
2022-10-29T02:05:39.834Z,98.07
2022-10-29T02:06:39.739Z,98.07
2022-10-29T02:07:39.719Z,97.97
2022-10-29T02:08:39.830Z,98.02
2022-10-29T02:09:39.918Z,98.02
2022-10-29T02:10:39.691Z,98.02
2022-10-29T02:11:39.754Z,98.02
2022-10-29T02:12:39.665Z,98.12
2022-10-29T02:13:39.644Z,98.12
2022-10-29T02:14:39.656Z,98.12
2022-10-29T02:15:39.603Z,98.12
2022-10-29T02:16:39.648Z,98.12
2022-10-29T02:17:39.609Z,98.22
2022-10-29T02:18:39.903Z,98.12
2022-10-29T02:19:39.561Z,98.12
2022-10-29T02:20:39.572Z,98.12
2022-10-29T02:21:39.583Z,98.02
2022-10-29T02:22:39.548Z,98.02
2022-10-29T02:23:39.624Z,98.07
2022-10-29T02:24:39.515Z,98.07
2022-10-29T02:25:39.565Z,98.07
2022-10-29T02:26:39.493Z,98.16
2022-10-29T02:27:39.485Z,98.07
2022-10-29T02:28:39.573Z,98.07
2022-10-29T02:29:39.508Z,98.07
2022-10-29T02:30:39.600Z,98.07
2022-10-29T02:31:39.467Z,98.16
2022-10-29T02:32:39.433Z,98.27
2022-10-29T02:33:39.707Z,98.37
2022-10-29T02:34:39.417Z,98.37
2022-10-29T02:35:39.396Z,98.47
2022-10-29T02:36:39.389Z,98.47
2022-10-29T02:37:39.351Z,98.47
2022-10-29T02:38:39.467Z,98.47
2022-10-29T02:39:39.351Z,98.47
2022-10-29T02:40:39.348Z,98.58
2022-10-29T02:41:39.319Z,98.58
2022-10-29T02:42:39.331Z,98.58
2022-10-29T02:43:40.060Z,98.58
2022-10-29T02:44:39.321Z,98.58
2022-10-29T02:45:39.261Z,98.58
2022-10-29T02:46:39.281Z,98.58
2022-10-29T02:47:39.985Z,98.68
2022-10-29T02:48:39.268Z,98.68
2022-10-29T02:49:39.330Z,98.68
2022-10-29T02:50:39.508Z,98.78
2022-10-29T02:51:39.201Z,98.78
2022-10-29T02:52:39.184Z,98.78
2022-10-29T02:53:39.165Z,98.88
2022-10-29T02:54:39.920Z,98.88
2022-10-29T02:55:39.158Z,98.78
2022-10-29T02:56:39.160Z,98.78
2022-10-29T02:57:39.151Z,98.78
2022-10-29T02:58:39.127Z,98.78
2022-10-29T02:59:39.093Z,98.78
2022-10-29T03:00:39.112Z,98.78
2022-10-29T03:01:39.220Z,98.78
2022-10-29T03:02:39.161Z,98.68
2022-10-29T03:03:39.052Z,98.72
2022-10-29T03:04:39.077Z,98.72
2022-10-29T03:05:39.031Z,98.72
2022-10-29T03:06:39.046Z,98.72
2022-10-29T03:07:39.039Z,98.72
2022-10-29T03:08:39.027Z,98.62
2022-10-29T03:09:39.347Z,98.62
2022-10-29T03:10:39.041Z,98.62
2022-10-29T03:11:39.049Z,98.62
2022-10-29T03:12:38.998Z,98.52
2022-10-29T03:13:38.960Z,98.52
2022-10-29T03:14:38.966Z,98.52
2022-10-29T03:15:38.920Z,98.57
2022-10-29T03:16:38.933Z,98.57
2022-10-29T03:17:38.915Z,98.57
2022-10-29T03:18:38.902Z,98.57
2022-10-29T03:19:38.881Z,98.67
2022-10-29T03:20:39.217Z,98.67
2022-10-29T03:21:38.852Z,98.77
2022-10-29T03:22:38.881Z,98.87
2022-10-29T03:23:38.822Z,99.08
2022-10-29T03:24:38.836Z,99.08
2022-10-29T03:25:38.816Z,99.08
2022-10-29T03:26:38.823Z,99.18
2022-10-29T03:27:38.790Z,99.08
2022-10-29T03:28:38.854Z,99.08
2022-10-29T03:29:39.155Z,99.08
2022-10-29T03:30:39.277Z,99.08
2022-10-29T03:31:38.876Z,98.97
2022-10-29T03:32:38.759Z,98.97
2022-10-29T03:33:39.086Z,98.97
2022-10-29T03:34:38.711Z,98.97
2022-10-29T03:35:38.742Z,99.02
2022-10-29T03:36:38.699Z,99.02
2022-10-29T03:37:38.653Z,99.02
2022-10-29T03:38:38.661Z,99.02
2022-10-29T03:39:38.659Z,99.02
2022-10-29T03:40:38.660Z,99.02
2022-10-29T03:41:38.610Z,99.02
2022-10-29T03:42:38.609Z,99.02
2022-10-29T03:43:38.629Z,99.02
2022-10-29T03:44:38.600Z,99.12
2022-10-29T03:45:38.570Z,99.02
2022-10-29T03:46:38.597Z,99.12
2022-10-29T03:47:38.541Z,99.02
2022-10-29T03:48:38.547Z,99.02
2022-10-29T03:49:38.559Z,99.02
2022-10-29T03:50:38.550Z,99.02
2022-10-29T03:51:38.598Z,99.02
2022-10-29T03:52:38.608Z,99.02
2022-10-29T03:53:38.490Z,99.02
2022-10-29T03:54:38.503Z,99.02
2022-10-29T03:55:38.549Z,99.07
2022-10-29T03:56:38.470Z,99.07
2022-10-29T03:57:38.429Z,99.07
2022-10-29T03:58:38.449Z,99.17
2022-10-29T03:59:38.409Z,99.17
2022-10-29T04:00:38.405Z,99.27
2022-10-29T04:01:38.456Z,99.27
2022-10-29T04:02:39.239Z,99.27
2022-10-29T04:03:38.370Z,99.38
2022-10-29T04:04:38.369Z,99.38
2022-10-29T04:05:38.351Z,99.38
2022-10-29T04:06:38.341Z,99.38
2022-10-29T04:07:38.429Z,99.38
2022-10-29T04:08:39.149Z,99.58
2022-10-29T04:09:38.300Z,99.68
2022-10-29T04:10:39.061Z,99.68
2022-10-29T04:11:38.637Z,99.54
2022-10-29T04:12:38.530Z,99.68
2022-10-29T04:13:38.277Z,99.58
2022-10-29T04:14:42.869Z,99.58
2022-10-29T04:15:39.239Z,99.58
2022-10-29T04:16:38.288Z,99.48
2022-10-29T04:17:38.263Z,99.48
2022-10-29T04:18:38.268Z,99.58
2022-10-29T04:19:38.280Z,99.58
2022-10-29T04:21:05.759Z,99.58
2022-10-29T04:28:41.327Z,99.58
2022-10-29T04:28:43.630Z,99.58
2022-10-29T04:29:39.093Z,99.58
2022-10-29T04:30:38.071Z,99.68
2022-10-29T04:31:38.075Z,99.68
2022-10-29T04:32:38.172Z,99.68
2022-10-29T04:33:38.027Z,99.68
2022-10-29T04:34:38.029Z,99.68
2022-10-29T04:35:38.036Z,99.68
2022-10-29T04:36:37.980Z,99.68
2022-10-29T04:37:37.978Z,99.68
2022-10-29T04:38:37.972Z,99.68
2022-10-29T04:39:37.965Z,99.68
2022-10-29T04:40:37.943Z,99.79
2022-10-29T04:41:38.182Z,99.79
2022-10-29T04:42:37.907Z,99.79
2022-10-29T04:43:37.920Z,99.79
2022-10-29T04:44:37.898Z,99.79
2022-10-29T04:45:37.956Z,99.79
2022-10-29T04:46:37.879Z,99.79
2022-10-29T04:47:37.877Z,99.84
2022-10-29T04:48:37.870Z,99.84
2022-10-29T04:49:37.849Z,99.84
2022-10-29T04:50:37.828Z,99.84
2022-10-29T04:51:37.903Z,99.84
2022-10-29T04:52:37.889Z,99.84
2022-10-29T04:53:37.931Z,99.95
2022-10-29T04:54:37.791Z,99.84
2022-10-29T04:55:37.805Z,99.84
2022-10-29T04:56:37.776Z,99.84
2022-10-29T04:57:37.768Z,99.74
2022-10-29T04:58:37.772Z,99.69
2022-10-29T04:59:37.728Z,99.69
2022-10-29T05:00:37.768Z,99.69
2022-10-29T05:01:37.758Z,99.69
2022-10-29T05:02:37.687Z,99.69
2022-10-29T05:03:38.166Z,99.69
2022-10-29T05:04:37.671Z,99.59
2022-10-29T05:05:37.678Z,99.59
2022-10-29T05:06:37.637Z,99.59
2022-10-29T05:07:37.636Z,99.59
2022-10-29T05:08:37.621Z,99.59
2022-10-29T05:09:37.629Z,99.59
2022-10-29T05:10:37.589Z,99.49
2022-10-29T05:11:37.628Z,99.49
2022-10-29T05:12:37.816Z,99.49
2022-10-29T05:13:37.940Z,99.49
2022-10-29T05:14:37.935Z,99.49
2022-10-29T05:15:37.561Z,99.38
2022-10-29T05:16:37.526Z,99.38
2022-10-29T05:17:37.529Z,99.38
2022-10-29T05:18:37.508Z,99.28
2022-10-29T05:19:37.524Z,99.28
2022-10-29T05:20:37.496Z,99.28
2022-10-29T05:21:37.475Z,99.18
2022-10-29T05:22:37.490Z,99.28
2022-10-29T05:23:37.459Z,99.28
2022-10-29T05:24:37.441Z,99.28
2022-10-29T05:25:37.434Z,99.28
2022-10-29T05:26:37.419Z,99.38
2022-10-29T05:27:37.418Z,99.38
2022-10-29T05:28:37.385Z,99.34
2022-10-29T05:29:37.405Z,99.34
2022-10-29T05:30:37.363Z,99.34
2022-10-29T05:31:37.377Z,99.34
2022-10-29T05:32:37.351Z,99.34
2022-10-29T05:33:37.366Z,99.34
2022-10-29T05:34:39.445Z,99.34
2022-10-29T05:35:37.339Z,99.34
2022-10-29T05:36:37.301Z,99.34
2022-10-29T05:37:37.320Z,99.34
2022-10-29T05:38:37.273Z,99.34
2022-10-29T05:39:37.275Z,99.29
2022-10-29T05:40:37.278Z,99.29
2022-10-29T05:41:37.275Z,99.29
2022-10-29T05:42:37.239Z,99.29
2022-10-29T05:43:37.236Z,99.19
2022-10-29T05:44:37.277Z,99.19
2022-10-29T05:45:37.217Z,99.19
2022-10-29T05:46:37.204Z,99.19
2022-10-29T05:47:37.936Z,99.19
2022-10-29T05:48:37.159Z,99.19
2022-10-29T05:49:37.164Z,99.09
2022-10-29T05:50:37.144Z,99.09
2022-10-29T05:51:37.136Z,98.99
2022-10-29T05:52:37.112Z,98.99
2022-10-29T05:53:37.289Z,98.99
2022-10-29T05:54:37.593Z,98.88
2022-10-29T05:55:37.094Z,98.88
2022-10-29T05:56:37.078Z,98.88
2022-10-29T05:57:37.089Z,98.88
2022-10-29T05:58:37.819Z,98.88
2022-10-29T05:59:37.036Z,98.88
2022-10-29T06:00:37.010Z,98.88
2022-10-29T06:01:37.119Z,98.88
2022-10-29T06:02:37.144Z,98.88
2022-10-29T06:03:36.998Z,98.88
2022-10-29T06:04:36.987Z,98.88
2022-10-29T06:05:36.977Z,98.88
2022-10-29T06:06:37.027Z,98.83
2022-10-29T06:07:36.975Z,98.83
2022-10-29T06:08:36.934Z,98.83
2022-10-29T06:09:36.925Z,98.83
2022-10-29T06:10:37.208Z,98.74
2022-10-29T06:11:36.896Z,98.74
2022-10-29T06:12:36.935Z,98.74
2022-10-29T06:13:36.912Z,98.74
2022-10-29T06:14:37.186Z,98.63
2022-10-29T06:15:36.855Z,98.63
2022-10-29T06:16:36.845Z,98.63
2022-10-29T06:17:36.826Z,98.63
2022-10-29T06:18:36.875Z,98.63
2022-10-29T06:19:36.862Z,98.63
2022-10-29T06:20:36.786Z,98.63
2022-10-29T06:21:36.783Z,98.53
2022-10-29T06:22:37.041Z,98.53
2022-10-29T06:23:36.776Z,98.43
2022-10-29T06:24:36.759Z,98.43
2022-10-29T06:25:36.743Z,98.33
2022-10-29T06:26:36.741Z,98.33
2022-10-29T06:27:36.726Z,98.33
2022-10-29T06:28:36.719Z,98.33
2022-10-29T06:29:36.694Z,98.22
2022-10-29T06:30:36.721Z,98.22
2022-10-29T06:31:36.678Z,98.22
2022-10-29T06:32:36.645Z,98.18
2022-10-29T06:33:36.664Z,98.18
2022-10-29T06:34:36.965Z,98.18
2022-10-29T06:35:36.966Z,98.18
2022-10-29T06:36:36.596Z,98.18
2022-10-29T06:37:36.603Z,98.18
2022-10-29T06:38:36.592Z,98.18
2022-10-29T06:39:36.575Z,98.18
2022-10-29T06:40:36.662Z,98.18
2022-10-29T06:41:36.555Z,98.18
2022-10-29T06:42:36.532Z,98.07
2022-10-29T06:43:36.573Z,98.07
2022-10-29T06:44:36.522Z,98.07
2022-10-29T06:45:36.524Z,98.07
2022-10-29T06:46:36.513Z,97.92
2022-10-29T06:47:36.515Z,97.82
2022-10-29T06:48:36.474Z,97.82
2022-10-29T06:49:36.457Z,97.72
2022-10-29T06:50:36.445Z,97.72
2022-10-29T06:51:36.466Z,97.62
2022-10-29T06:52:36.414Z,97.62
2022-10-29T06:53:36.416Z,97.52
2022-10-29T06:54:36.411Z,97.52
2022-10-29T06:55:36.486Z,97.52
2022-10-29T06:56:36.507Z,97.47
2022-10-29T06:57:36.379Z,97.47
2022-10-29T06:58:36.378Z,97.47
2022-10-29T06:59:36.343Z,97.47
2022-10-29T07:00:36.420Z,97.47
2022-10-29T07:01:36.401Z,97.47
2022-10-29T07:02:36.408Z,97.47
2022-10-29T07:03:36.324Z,97.42
2022-10-29T07:04:36.289Z,97.42
2022-10-29T07:05:36.341Z,97.42
2022-10-29T07:06:36.267Z,97.42
2022-10-29T07:07:36.264Z,97.42
2022-10-29T07:08:36.264Z,97.33
2022-10-29T07:09:36.283Z,97.33
2022-10-29T07:10:36.214Z,97.28
2022-10-29T07:11:36.232Z,97.28
2022-10-29T07:12:36.196Z,97.17
2022-10-29T07:13:36.217Z,97.08
2022-10-29T07:14:36.326Z,97.08
2022-10-29T07:15:36.334Z,96.97
2022-10-29T07:16:36.224Z,96.97
2022-10-29T07:17:36.157Z,96.87
2022-10-29T07:18:36.249Z,96.87
2022-10-29T07:19:36.449Z,96.62
2022-10-29T07:20:36.249Z,96.72
2022-10-29T07:21:36.166Z,96.72
2022-10-29T07:22:36.074Z,96.83
2022-10-29T07:23:36.081Z,96.83
2022-10-29T07:24:36.069Z,96.83
2022-10-29T07:25:36.107Z,96.72
2022-10-29T07:26:36.025Z,96.72
2022-10-29T07:27:36.238Z,96.58
2022-10-29T07:28:36.013Z,96.58
2022-10-29T07:29:36.019Z,96.47
2022-10-29T07:30:35.995Z,96.47
2022-10-29T07:31:35.993Z,96.27
2022-10-29T07:32:35.962Z,96.17
2022-10-29T07:33:35.963Z,96.17
2022-10-29T07:34:35.963Z,96.06
2022-10-29T07:35:36.254Z,95.96
2022-10-29T07:36:36.254Z,95.92
2022-10-29T07:37:36.292Z,95.81
2022-10-29T07:38:35.894Z,95.72
2022-10-29T07:39:35.897Z,95.72
2022-10-29T07:40:35.902Z,95.61
2022-10-29T07:41:35.891Z,95.51
2022-10-29T07:42:35.860Z,95.51
2022-10-29T07:43:35.871Z,95.51
2022-10-29T07:44:35.835Z,95.51
2022-10-29T07:45:35.849Z,95.51
2022-10-29T07:46:35.845Z,95.51
2022-10-29T07:47:35.834Z,95.61
2022-10-29T07:48:35.795Z,95.67
2022-10-29T07:49:35.805Z,95.67
2022-10-29T07:50:35.759Z,95.67
2022-10-29T07:51:35.776Z,95.67
2022-10-29T07:52:35.754Z,95.67
2022-10-29T07:53:35.768Z,95.57
2022-10-29T07:54:35.730Z,95.52
2022-10-29T07:55:35.746Z,95.42
2022-10-29T07:56:36.187Z,95.42
2022-10-29T07:57:35.706Z,95.12
2022-10-29T07:58:35.684Z,95.01
2022-10-29T07:59:35.675Z,95.01
2022-10-29T08:00:35.656Z,94.91
2022-10-29T08:01:35.784Z,94.81
2022-10-29T08:02:35.633Z,94.81
2022-10-29T08:03:35.670Z,94.76
2022-10-29T08:04:35.636Z,94.87
2022-10-29T08:05:35.606Z,94.87
2022-10-29T08:06:35.604Z,94.76
2022-10-29T08:07:35.585Z,94.72
2022-10-29T08:08:35.574Z,94.72
2022-10-29T08:09:35.566Z,94.62
2022-10-29T08:10:35.547Z,94.62
2022-10-29T08:11:35.598Z,94.47
2022-10-29T08:12:35.526Z,94.37
2022-10-29T08:13:35.514Z,94.07
2022-10-29T08:14:35.531Z,93.96
2022-10-29T08:15:35.493Z,93.86
2022-10-29T08:16:36.015Z,93.82
2022-10-29T08:17:35.626Z,93.71
2022-10-29T08:18:35.451Z,93.51
2022-10-29T08:19:35.503Z,93.51
2022-10-29T08:20:35.433Z,93.37
2022-10-29T08:21:35.432Z,93.37
2022-10-29T08:22:35.448Z,93.26
2022-10-29T08:23:35.372Z,93.16
2022-10-29T08:24:35.395Z,93.02
2022-10-29T08:25:35.353Z,92.82
2022-10-29T08:26:35.377Z,92.41
2022-10-29T08:27:35.328Z,92.21
2022-10-29T08:28:35.976Z,92.21
2022-10-29T08:29:35.335Z,92.06
2022-10-29T08:30:35.336Z,91.96
2022-10-29T08:31:35.320Z,91.86
2022-10-29T08:32:35.742Z,91.75
2022-10-29T08:33:35.263Z,91.65
2022-10-29T08:34:35.262Z,91.41
2022-10-29T08:35:35.254Z,91.30
2022-10-29T08:36:35.262Z,91.20
2022-10-29T08:37:35.257Z,91.20
2022-10-29T08:38:36.007Z,91.20
2022-10-29T08:39:35.191Z,91.30
2022-10-29T08:40:35.202Z,91.16
2022-10-29T08:41:35.162Z,91.06
2022-10-29T08:42:35.191Z,90.96
2022-10-29T08:43:35.142Z,90.75
2022-10-29T08:44:35.878Z,90.61
2022-10-29T08:45:35.136Z,90.31
2022-10-29T08:46:35.148Z,90.11
2022-10-29T08:47:35.132Z,90.20
2022-10-29T08:48:35.142Z,90.00
2022-10-29T08:49:35.062Z,89.39
2022-10-29T08:50:35.074Z,89.15
2022-10-29T08:51:35.045Z,89.04
2022-10-29T08:52:35.193Z,89.15
2022-10-29T08:53:35.062Z,89.35
2022-10-29T08:54:35.040Z,89.35
2022-10-29T08:55:35.029Z,89.01
2022-10-29T08:56:35.804Z,88.70
2022-10-29T08:57:35.881Z,88.60
2022-10-29T08:58:35.015Z,88.70
2022-10-29T08:59:34.985Z,88.70
2022-10-29T09:00:34.969Z,88.70
2022-10-29T09:01:35.084Z,88.70
2022-10-29T09:02:34.951Z,88.49
2022-10-29T09:03:34.933Z,88.49
2022-10-29T09:04:34.961Z,88.60
2022-10-29T09:05:34.903Z,88.70
2022-10-29T09:06:34.967Z,88.70
2022-10-29T09:07:34.865Z,88.66
2022-10-29T09:08:34.873Z,88.76
2022-10-29T09:09:34.867Z,88.76
2022-10-29T09:10:34.881Z,88.66
2022-10-29T09:11:34.827Z,88.66
2022-10-29T09:12:34.830Z,88.56
2022-10-29T09:13:34.813Z,88.21
2022-10-29T09:14:34.831Z,88.11
2022-10-29T09:15:34.784Z,88.11
2022-10-29T09:16:34.823Z,88.11
2022-10-29T09:17:34.802Z,88.21
2022-10-29T09:18:34.823Z,88.27
2022-10-29T09:19:34.920Z,87.97
2022-10-29T09:20:34.803Z,87.77
2022-10-29T09:21:34.784Z,87.87
2022-10-29T09:22:34.721Z,87.87
2022-10-29T09:23:34.685Z,87.97
2022-10-29T09:24:34.696Z,88.07
2022-10-29T09:25:34.696Z,88.17
2022-10-29T09:26:34.683Z,88.17
2022-10-29T09:27:34.672Z,88.27
2022-10-29T09:28:34.676Z,88.27
2022-10-29T09:29:34.625Z,88.37
2022-10-29T09:30:34.642Z,88.48
2022-10-29T09:31:34.625Z,88.68
2022-10-29T09:32:34.599Z,88.68
2022-10-29T09:33:34.576Z,88.57
2022-10-29T09:34:34.661Z,88.48
2022-10-29T09:35:34.553Z,88.37
2022-10-29T09:36:34.645Z,88.37
2022-10-29T09:37:34.562Z,88.23
2022-10-29T09:38:34.744Z,88.02
2022-10-29T09:39:34.755Z,88.02
2022-10-29T09:40:34.506Z,88.02
2022-10-29T09:41:34.516Z,88.02
2022-10-29T09:42:34.504Z,87.82
2022-10-29T09:43:34.490Z,87.68
2022-10-29T09:44:34.453Z,87.58
2022-10-29T09:45:34.460Z,87.58
2022-10-29T09:46:34.440Z,87.58
2022-10-29T09:47:34.418Z,87.58
2022-10-29T09:48:34.423Z,87.68
2022-10-29T09:49:34.430Z,87.79
2022-10-29T09:50:34.395Z,87.88
2022-10-29T09:51:34.374Z,87.84
2022-10-29T09:52:34.462Z,87.84
2022-10-29T09:53:34.354Z,87.84
2022-10-29T09:54:34.357Z,88.04
2022-10-29T09:55:34.324Z,87.95
2022-10-29T09:56:34.348Z,87.90
2022-10-29T09:57:34.347Z,87.70
2022-10-29T09:58:34.316Z,87.50
2022-10-29T09:59:34.373Z,87.10
2022-10-29T10:00:34.285Z,86.69
2022-10-29T10:01:34.302Z,86.25
2022-10-29T10:02:34.281Z,86.15
2022-10-29T10:03:34.235Z,85.64
2022-10-29T10:04:34.264Z,85.44
2022-10-29T10:05:34.225Z,84.59
2022-10-29T10:06:37.657Z,84.39
2022-10-29T10:07:35.200Z,84.09
2022-10-29T10:08:34.193Z,83.58
2022-10-29T10:09:34.167Z,83.58
2022-10-29T10:10:34.173Z,83.34
2022-10-29T10:11:34.156Z,83.24
2022-10-29T10:12:34.146Z,83.24
2022-10-29T10:13:34.125Z,82.73
2022-10-29T10:14:34.146Z,82.73
2022-10-29T10:15:34.116Z,82.73
2022-10-29T10:16:34.302Z,82.84
2022-10-29T10:17:34.093Z,82.73
2022-10-29T10:18:34.108Z,82.64
2022-10-29T10:19:34.323Z,82.84
2022-10-29T10:20:34.319Z,82.64
2022-10-29T10:21:34.019Z,82.64
2022-10-29T10:22:34.032Z,82.19
2022-10-29T10:23:34.015Z,81.89
2022-10-29T10:24:34.006Z,81.59
2022-10-29T10:25:34.027Z,81.28
2022-10-29T10:26:33.981Z,81.15
2022-10-29T10:27:33.958Z,80.33
2022-10-29T10:28:33.972Z,80.24
2022-10-29T10:29:33.936Z,80.04
2022-10-29T10:30:33.985Z,79.90
2022-10-29T10:31:33.919Z,79.69
2022-10-29T10:32:33.919Z,79.69
2022-10-29T10:33:33.915Z,79.16
2022-10-29T10:34:33.963Z,78.25
2022-10-29T10:35:33.882Z,77.81
2022-10-29T10:36:33.877Z,77.70
2022-10-29T10:37:33.836Z,76.97
2022-10-29T10:38:33.851Z,76.76
2022-10-29T10:39:34.147Z,76.03
2022-10-29T10:40:34.258Z,75.42
2022-10-29T10:41:34.277Z,74.48
2022-10-29T10:42:33.799Z,74.18
2022-10-29T10:43:33.776Z,73.84
2022-10-29T10:44:33.792Z,73.50
2022-10-29T10:45:33.763Z,73.71
2022-10-29T10:46:33.768Z,73.17
2022-10-29T10:47:33.727Z,72.87
2022-10-29T10:49:33.696Z,72.13
2022-10-29T10:50:33.743Z,71.53
2022-10-29T10:51:33.712Z,71.43
2022-10-29T10:52:33.739Z,71.73
2022-10-29T10:53:33.770Z,71.73
2022-10-29T10:54:33.793Z,70.93
2022-10-29T10:55:33.697Z,71.23
2022-10-29T10:56:33.651Z,70.89
2022-10-29T10:57:33.627Z,70.39
2022-10-29T10:58:33.649Z,69.69
2022-10-29T10:59:34.277Z,69.59
2022-10-29T11:00:34.289Z,69.49
2022-10-29T11:01:33.734Z,69.69
2022-10-29T11:02:33.655Z,69.49
2022-10-29T11:03:33.587Z,69.69
2022-10-29T11:04:33.569Z,69.46
2022-10-29T11:05:33.542Z,69.66
2022-10-29T11:06:33.560Z,69.35
2022-10-29T11:07:33.510Z,68.65
2022-10-29T11:08:33.534Z,69.16
2022-10-29T11:09:33.512Z,69.26
2022-10-29T11:10:33.485Z,68.85
2022-10-29T11:11:33.470Z,68.52
2022-10-29T11:12:33.465Z,67.72
2022-10-29T11:13:33.446Z,67.92
2022-10-29T11:14:33.449Z,68.02
2022-10-29T11:15:33.420Z,67.92
2022-10-29T11:16:33.420Z,67.82
2022-10-29T11:17:33.400Z,68.32
2022-10-29T11:18:33.389Z,68.82
2022-10-29T11:19:35.889Z,68.12
2022-10-29T11:20:33.820Z,67.12
2022-10-29T11:21:33.821Z,67.42
2022-10-29T11:22:33.864Z,67.49
2022-10-29T11:23:33.312Z,67.29
2022-10-29T11:24:33.337Z,67.39
2022-10-29T11:25:33.325Z,67.29
2022-10-29T11:26:33.310Z,67.36
2022-10-29T11:27:33.281Z,66.86
2022-10-29T11:28:34.068Z,66.75
2022-10-29T11:29:33.250Z,66.55
2022-10-29T11:30:33.260Z,66.55
2022-10-29T11:31:33.246Z,66.05
2022-10-29T11:32:33.252Z,66.05
2022-10-29T11:33:33.213Z,65.36
2022-10-29T11:34:33.212Z,65.36
2022-10-29T11:35:33.207Z,66.55
2022-10-29T11:36:33.323Z,65.09
2022-10-29T11:37:33.192Z,65.28
2022-10-29T11:38:33.193Z,65.69
2022-10-29T11:39:33.145Z,65.48
2022-10-29T11:40:33.151Z,66.09
2022-10-29T11:41:33.234Z,66.36
2022-10-29T11:42:33.243Z,66.05
2022-10-29T11:43:33.101Z,64.95
2022-10-29T11:44:33.264Z,64.75
2022-10-29T11:45:33.119Z,65.16
2022-10-29T11:46:33.132Z,65.45
2022-10-29T11:47:33.117Z,65.86
2022-10-29T11:48:33.190Z,65.55
2022-10-29T11:49:33.048Z,64.65
2022-10-29T11:50:33.021Z,63.75
2022-10-29T11:51:33.037Z,63.95
2022-10-29T11:52:35.601Z,64.75
2022-10-29T11:53:32.974Z,65.36
2022-10-29T11:54:32.994Z,65.55
2022-10-29T11:55:32.992Z,65.25
2022-10-29T11:56:33.012Z,64.65
2022-10-29T11:57:32.923Z,64.42
2022-10-29T11:58:36.656Z,65.12
2022-10-29T11:59:33.936Z,64.22
2022-10-29T12:00:32.913Z,64.32
2022-10-29T12:01:33.280Z,65.12
2022-10-29T12:02:33.085Z,64.42
2022-10-29T12:03:32.947Z,63.22
2022-10-29T12:04:32.902Z,62.62
2022-10-29T12:05:32.875Z,61.62
2022-10-29T12:06:32.836Z,61.72
2022-10-29T12:07:32.833Z,62.12
2022-10-29T12:08:32.874Z,62.42
2022-10-29T12:09:32.888Z,62.42
2022-10-29T12:10:32.815Z,60.92
2022-10-29T12:11:32.817Z,60.59
2022-10-29T12:12:32.778Z,60.59
2022-10-29T12:13:33.524Z,61.69
2022-10-29T12:14:32.764Z,60.10
2022-10-29T12:15:32.740Z,59.19
2022-10-29T12:16:32.728Z,59.79
2022-10-29T12:17:32.746Z,60.29
2022-10-29T12:18:32.718Z,59.99
2022-10-29T12:19:32.698Z,59.89
2022-10-29T12:20:32.760Z,60.69
2022-10-29T12:21:32.669Z,61.46
2022-10-29T12:22:33.014Z,61.16
2022-10-29T12:23:33.134Z,61.26
2022-10-29T12:24:32.654Z,60.46
2022-10-29T12:25:32.677Z,60.36
2022-10-29T12:26:32.623Z,60.46
2022-10-29T12:27:32.623Z,60.46
2022-10-29T12:28:32.601Z,60.36
2022-10-29T12:29:32.579Z,60.46
2022-10-29T12:30:32.596Z,59.66
2022-10-29T12:31:32.556Z,60.16
2022-10-29T12:32:32.594Z,60.46
2022-10-29T12:33:32.544Z,59.77
2022-10-29T12:34:32.527Z,58.86
2022-10-29T12:35:32.549Z,59.17
2022-10-29T12:36:32.522Z,58.86
2022-10-29T12:37:32.515Z,59.44
2022-10-29T12:38:32.480Z,58.86
2022-10-29T12:39:32.517Z,59.17
2022-10-29T12:40:32.449Z,59.17
2022-10-29T12:41:32.509Z,58.67
2022-10-29T12:42:32.948Z,59.36
2022-10-29T12:43:32.958Z,58.17
2022-10-29T12:44:32.966Z,57.84
2022-10-29T12:45:32.440Z,58.24
2022-10-29T12:46:32.391Z,58.84
2022-10-29T12:47:32.395Z,60.14
2022-10-29T12:48:32.382Z,58.34
2022-10-29T12:49:32.407Z,57.91
2022-10-29T12:50:32.342Z,57.81
2022-10-29T12:51:33.162Z,56.61
2022-10-29T12:52:32.367Z,56.41
2022-10-29T12:53:32.319Z,56.31
2022-10-29T12:54:32.308Z,56.31
2022-10-29T12:55:32.383Z,57.21
2022-10-29T12:56:32.272Z,57.91
2022-10-29T12:57:32.304Z,57.91
2022-10-29T12:58:32.274Z,56.91
2022-10-29T12:59:32.291Z,56.71
2022-10-29T13:00:32.258Z,57.21
2022-10-29T13:02:05.352Z,56.91
2022-10-29T13:02:33.378Z,57.11